createdAt,value
2022-10-18T00:00:53.040Z,9.05
2022-10-18T00:03:19.605Z,8.93
2022-10-18T00:05:48.029Z,7.72
2022-10-18T00:08:14.868Z,7.13
2022-10-18T00:10:41.403Z,7.38
2022-10-18T00:13:08.064Z,8.38
2022-10-18T00:15:34.717Z,8.10
2022-10-18T00:18:01.287Z,7.03
2022-10-18T00:20:28.863Z,7.22
2022-10-18T00:22:55.977Z,7.88
2022-10-18T00:25:22.984Z,8.32
2022-10-18T00:27:50.349Z,8.05
2022-10-18T00:30:16.982Z,7.80
2022-10-18T00:32:43.530Z,8.73
2022-10-18T00:35:10.361Z,8.38
2022-10-18T00:37:37.038Z,10.50
2022-10-18T00:40:04.897Z,8.13
2022-10-18T00:42:33.878Z,8.13
2022-10-18T00:45:22.922Z,8.15
2022-10-18T00:47:55.587Z,10.13
2022-10-18T00:50:24.760Z,7.65
2022-10-18T00:52:54.657Z,7.72
2022-10-18T00:55:21.844Z,7.10
2022-10-18T00:57:49.814Z,7.47
2022-10-18T01:00:16.644Z,6.78
2022-10-18T01:02:44.851Z,7.05
2022-10-18T01:05:17.443Z,6.50
2022-10-18T01:07:52.892Z,5.38
2022-10-18T01:10:25.305Z,5.70
2022-10-18T01:13:00.960Z,5.65
2022-10-18T01:15:31.283Z,6.72
2022-10-18T01:17:57.771Z,6.00
2022-10-18T01:20:39.727Z,6.15
2022-10-18T01:23:28.004Z,5.93
2022-10-18T01:26:13.659Z,5.57
2022-10-18T01:28:49.513Z,5.93
2022-10-18T01:31:21.677Z,6.07
2022-10-18T01:33:53.751Z,5.90
2022-10-18T01:36:48.619Z,6.30
2022-10-18T01:39:20.410Z,5.82
2022-10-18T01:41:49.295Z,6.00
2022-10-18T01:44:21.225Z,6.10
2022-10-18T01:46:49.301Z,6.82
2022-10-18T01:49:15.832Z,6.35
2022-10-18T01:51:42.394Z,5.55
2022-10-18T01:54:10.432Z,5.93
2022-10-18T01:56:59.368Z,6.18
2022-10-18T01:59:41.376Z,5.22
2022-10-18T02:02:35.948Z,5.75
2022-10-18T02:05:40.939Z,4.80
2022-10-18T02:08:23.193Z,4.38
2022-10-18T02:10:55.837Z,4.78
2022-10-18T02:13:26.553Z,4.70
2022-10-18T02:15:59.165Z,4.43
2022-10-18T02:18:34.471Z,4.93
2022-10-18T02:21:04.016Z,5.00
2022-10-18T02:23:32.683Z,5.47
2022-10-18T02:25:59.332Z,4.05
2022-10-18T02:28:26.564Z,4.85
2022-10-18T02:31:19.585Z,4.65
2022-10-18T02:34:04.997Z,4.28
2022-10-18T02:36:34.189Z,6.78
2022-10-18T02:39:05.053Z,9.70
2022-10-18T02:41:32.390Z,7.80
2022-10-18T02:43:58.988Z,7.40
2022-10-18T02:48:57.107Z,7.30
2022-10-18T02:51:23.796Z,6.47
2022-10-18T02:53:50.366Z,6.70
2022-10-18T02:56:16.903Z,6.32
2022-10-18T02:58:43.444Z,5.32
2022-10-18T03:01:10.134Z,6.90
2022-10-18T03:03:36.746Z,5.75
2022-10-18T03:06:03.461Z,6.22
2022-10-18T03:08:30.064Z,5.90
2022-10-18T03:10:56.609Z,5.70
2022-10-18T03:13:23.224Z,6.95
2022-10-18T03:15:49.944Z,6.07
2022-10-18T03:18:16.573Z,6.13
2022-10-18T03:20:43.192Z,6.18
2022-10-18T03:23:09.946Z,6.43
2022-10-18T03:25:36.530Z,5.50
2022-10-18T03:28:03.392Z,6.05
2022-10-18T03:30:29.991Z,5.32
2022-10-18T03:32:56.616Z,5.32
2022-10-18T03:35:23.205Z,5.82
2022-10-18T03:37:49.835Z,5.43
2022-10-18T03:40:16.634Z,2.80
2022-10-18T03:42:43.277Z,2.30
2022-10-18T03:45:10.377Z,2.70
2022-10-18T03:47:36.948Z,3.22
2022-10-18T03:50:04.153Z,2.35
2022-10-18T03:52:31.035Z,2.70
2022-10-18T03:54:57.869Z,2.50
2022-10-18T03:57:24.480Z,2.40
2022-10-18T03:59:51.140Z,2.80
2022-10-18T04:02:18.430Z,2.25
2022-10-18T04:04:45.015Z,2.35
2022-10-18T04:07:11.608Z,2.92
2022-10-18T04:09:38.140Z,2.42
2022-10-18T04:12:04.993Z,2.97
2022-10-18T04:14:31.573Z,2.20
2022-10-18T04:16:58.291Z,2.10
2022-10-18T04:19:24.888Z,2.28
2022-10-18T04:21:51.505Z,2.30
2022-10-18T04:24:18.082Z,2.72
2022-10-18T04:26:44.667Z,2.67
2022-10-18T04:29:12.380Z,2.55
2022-10-18T04:31:39.592Z,2.35
2022-10-18T04:34:06.926Z,2.50
2022-10-18T04:36:34.191Z,2.60
2022-10-18T04:39:00.761Z,2.30
2022-10-18T04:41:27.413Z,2.80
2022-10-18T04:43:54.048Z,2.40
2022-10-18T04:46:20.620Z,3.88
2022-10-18T04:48:47.260Z,2.58
2022-10-18T04:51:13.889Z,2.33
2022-10-18T04:53:40.476Z,2.60
2022-10-18T04:56:07.590Z,2.70
2022-10-18T04:58:34.381Z,2.65
2022-10-18T05:01:04.359Z,2.15
2022-10-18T05:03:30.908Z,2.20
2022-10-18T05:06:02.558Z,3.42
2022-10-18T05:08:30.686Z,3.08
2022-10-18T05:10:57.376Z,3.28
2022-10-18T05:13:24.069Z,4.35
2022-10-18T05:15:50.953Z,5.38
2022-10-18T05:18:17.834Z,4.93
2022-10-18T05:20:44.486Z,5.43
2022-10-18T05:23:11.108Z,4.43
2022-10-18T05:25:43.864Z,3.97
2022-10-18T05:28:11.111Z,4.30
2022-10-18T05:30:42.555Z,4.10
2022-10-18T05:33:09.669Z,4.13
2022-10-18T05:35:36.757Z,3.70
2022-10-18T05:38:05.759Z,4.55
2022-10-18T05:40:38.568Z,3.25
2022-10-18T05:43:05.213Z,8.95
2022-10-18T05:45:31.753Z,6.07
2022-10-18T05:47:58.369Z,4.80
2022-10-18T05:50:24.958Z,4.45
2022-10-18T05:52:51.509Z,4.68
2022-10-18T05:55:18.185Z,4.88
2022-10-18T05:57:49.593Z,5.38
2022-10-18T06:00:16.432Z,4.82
2022-10-18T06:02:43.025Z,5.75
2022-10-18T06:05:09.693Z,5.25
2022-10-18T06:07:36.254Z,4.97
2022-10-18T06:10:02.989Z,4.22
2022-10-18T06:12:29.564Z,4.47
2022-10-18T06:14:56.170Z,4.45
2022-10-18T06:17:22.757Z,3.75
2022-10-18T06:19:49.353Z,4.05
2022-10-18T06:22:15.994Z,4.45
2022-10-18T06:24:42.603Z,3.88
2022-10-18T06:27:09.590Z,4.72
2022-10-18T06:29:37.610Z,5.03
2022-10-18T06:32:05.784Z,4.88
2022-10-18T06:34:33.042Z,5.65
2022-10-18T06:37:00.181Z,4.75
2022-10-18T06:39:26.882Z,4.43
2022-10-18T06:41:53.630Z,4.35
2022-10-18T06:44:21.097Z,4.60
2022-10-18T06:46:49.165Z,4.55
2022-10-18T06:49:18.959Z,4.03
2022-10-18T06:51:46.534Z,4.50
2022-10-18T06:54:17.865Z,4.35
2022-10-18T06:56:45.208Z,4.30
2022-10-18T06:59:11.790Z,4.28
2022-10-18T07:01:38.629Z,4.40
2022-10-18T07:04:05.230Z,4.13
2022-10-18T07:06:31.870Z,6.18
2022-10-18T07:08:58.622Z,6.38
2022-10-18T07:11:27.165Z,4.30
2022-10-18T07:13:55.533Z,4.40
2022-10-18T07:16:22.348Z,4.10
2022-10-18T07:18:51.148Z,4.55
2022-10-18T07:21:20.473Z,3.97
2022-10-18T07:23:47.701Z,3.90
2022-10-18T07:26:27.161Z,3.13
2022-10-18T07:29:00.573Z,4.15
2022-10-18T07:31:27.495Z,3.85
2022-10-18T07:33:54.432Z,4.20
2022-10-18T07:36:22.239Z,4.05
2022-10-18T07:38:50.002Z,3.08
2022-10-18T07:41:16.558Z,4.47
2022-10-18T07:43:45.931Z,3.88
2022-10-18T07:46:13.705Z,3.50
2022-10-18T07:48:40.788Z,3.25
2022-10-18T07:51:07.741Z,3.00
2022-10-18T07:53:34.666Z,3.13
2022-10-18T07:56:07.097Z,3.10
2022-10-18T07:58:36.332Z,2.90
2022-10-18T08:01:05.301Z,3.28
2022-10-18T08:03:32.452Z,2.33
2022-10-18T08:05:59.597Z,2.58
2022-10-18T08:08:27.465Z,3.28
2022-10-18T08:10:54.377Z,2.35
2022-10-18T08:13:22.367Z,2.72
2022-10-18T08:15:48.937Z,4.32
2022-10-18T08:18:15.683Z,3.90
2022-10-18T08:20:45.805Z,4.00
2022-10-18T08:23:12.848Z,3.80
2022-10-18T08:25:39.509Z,3.55
2022-10-18T08:28:07.068Z,3.90
2022-10-18T08:30:35.025Z,3.42
2022-10-18T08:33:02.171Z,3.60
2022-10-18T08:35:28.806Z,3.55
2022-10-18T08:37:55.367Z,3.40
2022-10-18T08:40:22.112Z,3.67
2022-10-18T08:43:19.338Z,3.63
2022-10-18T08:45:51.025Z,3.67
2022-10-18T08:48:30.862Z,4.32
2022-10-18T08:50:58.463Z,3.75
2022-10-18T08:53:39.290Z,3.90
2022-10-18T08:56:18.868Z,5.40
2022-10-18T08:58:45.546Z,4.60
2022-10-18T09:01:43.210Z,4.05
2022-10-18T09:04:33.053Z,3.60
2022-10-18T09:07:36.799Z,3.90
2022-10-18T09:10:06.383Z,3.20
2022-10-18T09:12:57.862Z,3.08
2022-10-18T09:15:42.531Z,2.83
2022-10-18T09:18:18.187Z,2.72
2022-10-18T09:21:05.345Z,2.33
2022-10-18T09:24:02.163Z,2.90
2022-10-18T09:26:38.715Z,2.75
2022-10-18T09:29:43.133Z,3.55
2022-10-18T09:32:40.674Z,2.92
2022-10-18T09:35:30.614Z,3.47
2022-10-18T09:38:04.641Z,3.25
2022-10-18T09:40:37.081Z,2.90
2022-10-18T09:43:13.428Z,3.03
2022-10-18T09:45:42.984Z,3.00
2022-10-18T09:48:21.662Z,3.03
2022-10-18T09:51:06.277Z,2.90
2022-10-18T09:53:40.953Z,2.88
2022-10-18T09:56:24.196Z,2.72
2022-10-18T09:58:54.046Z,2.50
2022-10-18T10:01:29.733Z,2.50
2022-10-18T10:03:56.644Z,2.67
2022-10-18T10:06:27.956Z,2.70
2022-10-18T10:09:06.090Z,2.92
2022-10-18T10:11:37.923Z,3.42
2022-10-18T10:16:59.400Z,2.88
2022-10-18T10:19:33.294Z,2.53
2022-10-18T10:22:05.265Z,2.75
2022-10-18T10:24:53.054Z,3.60
2022-10-18T10:27:43.593Z,2.58
2022-10-18T10:30:26.641Z,2.45
2022-10-18T10:32:54.833Z,3.20
2022-10-18T10:35:53.203Z,3.10
2022-10-18T10:38:28.898Z,2.80
2022-10-18T10:40:56.309Z,2.78
2022-10-18T10:43:43.021Z,3.28
2022-10-18T10:46:13.600Z,2.70
2022-10-18T10:49:13.950Z,2.88
2022-10-18T10:51:43.581Z,3.15
2022-10-18T10:54:20.785Z,3.17
2022-10-18T10:57:20.613Z,3.10
2022-10-18T10:59:52.574Z,3.30
2022-10-18T11:02:32.619Z,2.78
2022-10-18T11:05:23.406Z,2.80
2022-10-18T11:07:57.586Z,3.17
2022-10-18T11:10:28.215Z,3.42
2022-10-18T11:13:26.930Z,3.15
2022-10-18T11:16:00.367Z,3.80
2022-10-18T11:18:36.830Z,2.70
2022-10-18T11:21:23.624Z,3.15
2022-10-18T11:23:50.561Z,2.65
2022-10-18T11:26:49.969Z,2.95
2022-10-18T11:29:35.942Z,3.03
2022-10-18T11:32:24.617Z,2.60
2022-10-18T11:35:10.282Z,2.97
2022-10-18T11:37:59.664Z,3.00
2022-10-18T11:41:04.276Z,2.45
2022-10-18T11:44:01.096Z,2.58
2022-10-18T11:46:47.825Z,2.55
2022-10-18T11:49:52.815Z,2.92
2022-10-18T11:52:53.313Z,2.65
2022-10-18T11:55:37.967Z,3.05
2022-10-18T11:58:33.955Z,2.80
2022-10-18T12:01:15.922Z,3.92
2022-10-18T12:03:57.889Z,3.88
2022-10-18T12:06:30.687Z,3.50
2022-10-18T12:09:04.726Z,3.63
2022-10-18T12:11:46.886Z,4.00
2022-10-18T12:14:27.878Z,3.83
2022-10-18T12:17:27.934Z,3.85
2022-10-18T12:19:47.130Z,3.53
2022-10-18T12:22:21.228Z,3.90
2022-10-18T12:24:47.800Z,3.88
2022-10-18T12:27:16.602Z,3.40
2022-10-18T12:29:50.397Z,5.05
2022-10-18T12:32:24.709Z,4.97
2022-10-18T12:34:59.796Z,3.38
2022-10-18T12:37:50.389Z,3.58
2022-10-18T12:40:23.157Z,4.20
2022-10-18T12:42:52.282Z,4.28
2022-10-18T12:45:24.838Z,5.35
2022-10-18T12:47:52.369Z,4.50
2022-10-18T12:50:42.072Z,4.28
2022-10-18T12:53:24.149Z,4.65
2022-10-18T12:55:52.622Z,4.15
2022-10-18T12:58:28.427Z,4.53
2022-10-18T13:00:57.897Z,4.20
2022-10-18T13:03:27.381Z,5.40
2022-10-18T13:05:56.680Z,4.90
2022-10-18T13:08:30.186Z,4.47
2022-10-18T13:11:09.026Z,3.72
2022-10-18T13:13:40.683Z,4.45
2022-10-18T13:16:22.620Z,2.70
2022-10-18T13:18:57.754Z,1.90
2022-10-18T13:21:33.606Z,1.75
2022-10-18T13:24:02.934Z,1.60
2022-10-18T13:26:38.471Z,2.08
2022-10-18T13:29:09.573Z,2.15
2022-10-18T13:31:51.799Z,1.98
2022-10-18T13:34:22.458Z,7.60
2022-10-18T13:37:15.785Z,3.00
2022-10-18T13:39:42.648Z,25.30
2022-10-18T13:42:15.214Z,6.13
2022-10-18T13:44:44.654Z,2.90
2022-10-18T13:47:31.995Z,2.40
2022-10-18T13:50:29.940Z,2.33
2022-10-18T13:53:22.374Z,2.38
2022-10-18T13:56:20.686Z,2.70
2022-10-18T13:59:15.986Z,2.17
2022-10-18T14:02:10.243Z,2.30
2022-10-18T14:05:24.983Z,2.40
2022-10-18T14:07:58.113Z,2.00
2022-10-18T14:10:50.126Z,1.90
2022-10-18T14:13:27.969Z,2.20
2022-10-18T14:15:59.685Z,2.15
2022-10-18T14:18:34.298Z,2.50
2022-10-18T14:21:14.052Z,1.98
2022-10-18T14:23:44.767Z,2.42
2022-10-18T14:26:20.588Z,2.25
2022-10-18T14:29:04.306Z,2.05
2022-10-18T14:31:31.082Z,1.70
2022-10-18T14:33:59.015Z,1.90
2022-10-18T14:36:40.909Z,2.22
2022-10-18T14:39:17.107Z,2.00
2022-10-18T14:41:55.304Z,2.00
2022-10-18T14:44:30.555Z,2.10
2022-10-18T14:47:13.951Z,1.80
2022-10-18T14:49:45.110Z,1.90
2022-10-18T14:52:24.052Z,1.88
2022-10-18T14:54:55.545Z,1.95
2022-10-18T14:57:34.939Z,2.00
2022-10-18T15:00:07.932Z,2.42
2022-10-18T15:02:37.494Z,3.80
2022-10-18T15:05:17.298Z,3.10
2022-10-18T15:10:35.480Z,3.67
2022-10-18T15:13:09.688Z,2.83
2022-10-18T15:15:38.053Z,3.03
2022-10-18T15:18:06.537Z,3.95
2022-10-18T15:20:39.518Z,4.70
2022-10-18T15:23:32.402Z,4.35
2022-10-18T15:26:06.454Z,3.17
2022-10-18T15:28:51.187Z,3.50
2022-10-18T15:31:23.839Z,2.88
2022-10-18T15:33:50.714Z,2.30
2022-10-18T15:36:27.173Z,2.17
2022-10-18T15:38:54.472Z,2.20
2022-10-18T15:41:38.849Z,2.10
2022-10-18T15:44:32.158Z,1.83
2022-10-18T15:47:13.828Z,2.00
2022-10-18T15:49:46.528Z,2.10
2022-10-18T15:52:22.108Z,1.95
2022-10-18T15:57:20.792Z,1.73
2022-10-18T16:00:18.275Z,2.00
2022-10-18T16:02:45.254Z,2.00
2022-10-18T16:05:19.035Z,1.77
2022-10-18T16:07:46.492Z,1.98
2022-10-18T16:10:14.515Z,2.00
2022-10-18T16:12:41.472Z,2.28
2022-10-18T16:15:08.620Z,2.20
2022-10-18T16:17:35.510Z,2.08
2022-10-18T16:20:02.219Z,2.30
2022-10-18T16:22:30.262Z,1.90
2022-10-18T16:24:58.832Z,1.90
2022-10-18T16:27:25.888Z,2.20
2022-10-18T16:29:52.420Z,1.92
2022-10-18T16:32:18.961Z,1.75
2022-10-18T16:34:45.584Z,1.90
2022-10-18T16:37:12.122Z,1.70
2022-10-18T16:39:38.684Z,1.92
2022-10-18T16:42:05.562Z,2.05
2022-10-18T16:44:32.176Z,2.35
2022-10-18T16:46:58.771Z,2.00
2022-10-18T16:49:26.326Z,2.63
2022-10-18T16:51:54.476Z,2.53
2022-10-18T16:54:21.359Z,1.73
2022-10-18T16:56:50.143Z,2.65
2022-10-18T16:59:29.127Z,3.53
2022-10-18T17:01:55.989Z,4.40
2022-10-18T17:04:22.665Z,3.70
2022-10-18T17:06:49.534Z,3.83
2022-10-18T17:09:16.317Z,3.22
2022-10-18T17:11:43.072Z,3.47
2022-10-18T17:14:09.716Z,2.80
2022-10-18T17:16:38.999Z,2.40
2022-10-18T17:19:08.307Z,2.70
2022-10-18T17:21:35.281Z,2.70
2022-10-18T17:24:03.178Z,2.60
2022-10-18T17:26:30.552Z,2.80
2022-10-18T17:29:00.283Z,2.72
2022-10-18T17:31:28.269Z,3.08
2022-10-18T17:33:55.417Z,2.47
2022-10-18T17:36:22.409Z,2.50
2022-10-18T17:38:54.533Z,2.28
2022-10-18T17:41:21.337Z,3.08
2022-10-18T17:43:48.581Z,2.50
2022-10-18T17:46:16.125Z,2.75
2022-10-18T17:48:43.027Z,2.80
2022-10-18T17:51:15.398Z,2.30
2022-10-18T17:53:42.071Z,2.70
2022-10-18T17:56:10.574Z,2.60
2022-10-18T17:58:37.419Z,2.75
2022-10-18T18:01:16.502Z,2.83
2022-10-18T18:03:43.231Z,2.25
2022-10-18T18:06:21.732Z,2.00
2022-10-18T18:08:49.356Z,3.30
2022-10-18T18:11:17.007Z,2.22
2022-10-18T18:13:43.681Z,2.25
2022-10-18T18:16:15.516Z,2.63
2022-10-18T18:18:42.894Z,2.33
2022-10-18T18:21:09.522Z,2.75
2022-10-18T18:23:36.152Z,3.67
2022-10-18T18:26:03.016Z,3.40
2022-10-18T18:28:29.628Z,3.92
2022-10-18T18:30:56.868Z,4.28
2022-10-18T18:33:23.477Z,4.53
2022-10-18T18:35:59.564Z,4.10
2022-10-18T18:38:26.859Z,4.72
2022-10-18T18:41:12.052Z,4.75
2022-10-18T18:43:40.634Z,3.80
2022-10-18T18:46:08.422Z,6.22
2022-10-18T18:48:35.936Z,6.38
2022-10-18T18:51:04.746Z,6.45
2022-10-18T18:53:31.748Z,7.55
2022-10-18T18:56:02.929Z,8.82
2022-10-18T18:58:29.485Z,7.00
2022-10-18T19:00:56.125Z,11.25
2022-10-18T19:03:22.740Z,8.10
2022-10-18T19:05:49.375Z,7.57
2022-10-18T19:08:15.908Z,7.70
2022-10-18T19:10:42.578Z,11.32
2022-10-18T19:13:09.121Z,11.27
2022-10-18T19:15:35.660Z,10.63
2022-10-18T19:18:02.321Z,9.57
2022-10-18T19:20:28.853Z,9.40
2022-10-18T19:22:55.455Z,10.32
2022-10-18T19:25:24.754Z,9.25
2022-10-18T19:27:53.606Z,14.00
2022-10-18T19:30:20.286Z,10.32
2022-10-18T19:32:46.928Z,7.97
2022-10-18T19:35:13.534Z,7.88
2022-10-18T19:37:40.765Z,8.13
2022-10-18T19:40:07.847Z,11.27
2022-10-18T19:42:35.993Z,18.15
2022-10-18T19:45:03.245Z,10.95
2022-10-18T19:47:30.013Z,14.18
2022-10-18T19:49:56.810Z,12.70
2022-10-18T19:52:23.415Z,9.60
2022-10-18T19:54:50.065Z,8.75
2022-10-18T19:57:16.633Z,7.47
2022-10-18T19:59:44.338Z,5.70
2022-10-18T20:02:15.253Z,8.00
2022-10-18T20:04:42.020Z,7.53
2022-10-18T20:07:08.845Z,8.68
2022-10-18T20:09:35.551Z,12.88
2022-10-18T20:12:02.146Z,13.52
2022-10-18T20:14:28.790Z,10.35
2022-10-18T20:16:55.367Z,13.98
2022-10-18T20:19:21.955Z,9.57
2022-10-18T20:21:48.512Z,11.13
2022-10-18T20:24:15.076Z,8.10
2022-10-18T20:26:43.426Z,10.55
2022-10-18T20:29:10.098Z,10.73
2022-10-18T20:31:38.925Z,9.77
2022-10-18T20:34:08.392Z,9.48
2022-10-18T20:36:35.463Z,8.93
2022-10-18T20:39:03.508Z,10.15
2022-10-18T20:41:33.732Z,13.02
2022-10-18T20:44:02.850Z,11.93
2022-10-18T20:46:34.853Z,11.68
2022-10-18T20:49:02.336Z,9.02
2022-10-18T20:51:29.000Z,7.65
2022-10-18T20:53:56.142Z,8.15
2022-10-18T20:56:31.439Z,7.50
2022-10-18T20:58:58.423Z,7.03
2022-10-18T21:01:30.640Z,7.50
2022-10-18T21:03:59.831Z,8.23
2022-10-18T21:06:32.205Z,14.52
2022-10-18T21:09:01.255Z,10.55
2022-10-18T21:11:30.127Z,8.98
2022-10-18T21:14:02.715Z,8.88
2022-10-18T21:16:30.993Z,10.85
2022-10-18T21:19:05.538Z,9.20
2022-10-18T21:21:32.111Z,8.88
2022-10-18T21:24:02.404Z,8.40
2022-10-18T21:26:32.151Z,8.85
2022-10-18T21:29:00.017Z,8.82
2022-10-18T21:31:29.541Z,7.00
2022-10-18T21:34:00.836Z,8.50
2022-10-18T21:36:31.484Z,8.68
2022-10-18T21:38:58.430Z,9.38
2022-10-18T21:41:25.267Z,8.90
2022-10-18T21:43:54.133Z,9.45
2022-10-18T21:46:22.367Z,9.70
2022-10-18T21:48:51.559Z,9.18
2022-10-18T21:51:19.832Z,10.32
2022-10-18T21:53:48.853Z,9.43
2022-10-18T21:56:29.928Z,13.75
2022-10-18T21:58:56.872Z,9.93
2022-10-18T22:01:32.358Z,10.38
2022-10-18T22:04:01.281Z,10.95
2022-10-18T22:06:33.210Z,10.98
2022-10-18T22:09:02.368Z,12.65
2022-10-18T22:11:35.231Z,12.07
2022-10-18T22:14:02.074Z,10.70
2022-10-18T22:16:28.653Z,11.48
2022-10-18T22:19:00.875Z,11.13
2022-10-18T22:21:28.406Z,13.38
2022-10-18T22:23:59.541Z,12.60
2022-10-18T22:26:32.181Z,12.50
2022-10-18T22:29:07.829Z,12.30
2022-10-18T22:31:36.597Z,11.30
2022-10-18T22:34:06.569Z,12.15
2022-10-18T22:36:34.348Z,13.18
2022-10-18T22:39:01.674Z,11.02
2022-10-18T22:41:28.485Z,11.60
2022-10-18T22:43:57.311Z,10.63
2022-10-18T22:46:26.317Z,10.52
2022-10-18T22:48:53.204Z,10.82
2022-10-18T22:51:21.013Z,10.38
2022-10-18T22:53:47.591Z,10.27
2022-10-18T22:56:17.657Z,9.55
2022-10-18T22:58:44.257Z,8.73
2022-10-18T23:01:14.218Z,9.55
2022-10-18T23:03:40.902Z,7.75
2022-10-18T23:06:20.818Z,7.45
2022-10-18T23:08:47.789Z,7.18
2022-10-18T23:11:15.208Z,7.57
2022-10-18T23:13:41.889Z,7.57
2022-10-18T23:16:08.658Z,7.22
2022-10-18T23:18:35.472Z,8.25
2022-10-18T23:21:08.057Z,7.88
2022-10-18T23:23:36.317Z,8.93
2022-10-18T23:26:13.941Z,10.40
2022-10-18T23:28:45.622Z,9.02
2022-10-18T23:31:13.698Z,10.13
2022-10-18T23:33:41.040Z,8.55
2022-10-18T23:36:08.636Z,11.32
2022-10-18T23:38:36.629Z,10.15
2022-10-18T23:41:03.967Z,10.25
2022-10-18T23:43:30.549Z,10.43
2022-10-18T23:45:57.144Z,9.45
2022-10-18T23:48:23.881Z,10.00
2022-10-18T23:50:50.495Z,10.52
2022-10-18T23:53:19.574Z,9.63
2022-10-18T23:55:56.828Z,9.35
2022-10-18T23:58:24.268Z,9.57
